Time;durP1;ratioP1;P1;durP2;ratioP2;P2;SDS_P1;SDS_P2;PMS_P1;PMS_P2;Temp;Humidity;BMP_temperature;BMP_pressure;BME280_temperature;BME280_humidity;BME280_pressure;Samples;Min_cycle;Max_cycle;Signal;HPM_P1;HPM_P2
2022/10/08 00:01:58;;;;;;;22.02;11.27;;;;;;;14.41;92.79;99578.56;8469109;27;20093;-77
2022/10/08 00:06:02;;;;;;;20.38;11.25;;;;;;;14.36;92.98;99565.94;8513570;27;20485;-77
2022/10/08 00:10:05;;;;;;;17.70;10.73;;;;;;;14.31;93.32;99568.00;8509165;27;20082;-77
2022/10/08 00:14:07;;;;;;;22.15;12.23;;;;;;;14.22;93.67;99556.34;8448627;27;20035;-78
2022/10/08 00:18:07;;;;;;;21.13;11.77;;;;;;;14.17;94.13;99553.81;8474860;27;20076;-77
2022/10/08 00:22:09;;;;;;;22.30;13.13;;;;;;;14.11;94.59;99544.22;8479658;27;20048;-77
2022/10/08 00:26:10;;;;;;;25.17;13.90;;;;;;;14.07;94.52;99548.66;8475794;27;20074;-77
2022/10/08 00:30:11;;;;;;;22.85;13.27;;;;;;;14.01;94.72;99539.13;8477969;27;20405;-78
2022/10/08 00:34:16;;;;;;;25.10;13.20;;;;;;;13.95;94.91;99542.00;8448478;27;20514;-77
2022/10/08 00:38:17;;;;;;;27.75;15.68;;;;;;;13.91;95.27;99541.00;8472902;27;20052;-78
2022/10/08 00:42:18;;;;;;;31.45;14.65;;;;;;;13.89;95.00;99537.84;8463935;27;20153;-78
2022/10/08 00:46:26;;;;;;;23.08;14.02;;;;;;;13.83;95.38;99538.31;8463874;27;20075;-77
2022/10/08 00:50:33;;;;;;;21.52;12.93;;;;;;;13.79;95.65;99527.31;8481332;27;20050;-78
2022/10/08 00:54:35;;;;;;;25.60;12.68;;;;;;;13.75;95.99;99515.47;8479765;27;20108;-77
2022/10/08 00:58:36;;;;;;;25.77;13.82;;;;;;;13.74;95.91;99513.88;8465159;27;20067;-77
2022/10/08 01:02:37;;;;;;;23.65;13.13;;;;;;;13.74;95.81;99508.47;8479014;27;20393;-78
2022/10/08 01:06:51;;;;;;;25.88;15.45;;;;;;;13.72;95.92;99510.69;8468937;27;20138;-77
2022/10/08 01:10:59;;;;;;;30.20;14.85;;;;;;;13.67;96.00;99507.34;8468383;27;20537;-76
2022/10/08 01:15:33;;;;;;;33.50;15.25;;;;;;;13.57;96.36;99503.03;8495059;27;20138;-76
2022/10/08 01:19:49;;;;;;;25.13;15.55;;;;;;;13.48;96.69;99499.50;8489708;27;20104;-76
2022/10/08 01:24:20;;;;;;;28.25;14.77;;;;;;;13.40;96.68;99492.16;8511081;27;20042;-77
2022/10/08 01:28:42;;;;;;;22.77;13.85;;;;;;;13.32;97.05;99487.53;8505833;27;20035;-77
2022/10/08 01:32:53;;;;;;;23.13;14.05;;;;;;;13.26;97.13;99491.50;8491545;27;20137;-77
2022/10/08 01:36:56;;;;;;;21.52;12.75;;;;;;;13.23;96.92;99476.63;8465709;27;20130;-76
2022/10/08 01:40:58;;;;;;;19.83;12.98;;;;;;;13.26;97.09;99477.94;8452791;27;20039;-78
2022/10/08 01:45:03;;;;;;;17.33;12.13;;;;;;;13.29;96.77;99469.16;8488450;27;20058;-77
2022/10/08 01:49:09;;;;;;;17.45;12.82;;;;;;;13.32;96.63;99476.69;8487533;27;20054;-78
2022/10/08 01:53:13;;;;;;;19.45;12.10;;;;;;;13.34;96.62;99471.72;8497823;27;20043;-78
2022/10/08 01:57:14;;;;;;;21.55;12.63;;;;;;;13.37;96.46;99471.09;8504015;27;20058;-78
2022/10/08 02:01:27;;;;;;;20.80;12.68;;;;;;;13.43;96.58;99467.13;8436681;28;20067;-77
2022/10/08 02:05:31;;;;;;;23.85;13.27;;;;;;;13.49;96.21;99463.09;8414115;28;20044;-77
2022/10/08 02:09:35;;;;;;;21.38;12.95;;;;;;;13.51;96.19;99463.59;8436870;28;20499;-76
2022/10/08 02:13:36;;;;;;;22.55;13.00;;;;;;;13.54;96.15;99454.81;8424935;28;20514;-77
2022/10/08 02:18:08;;;;;;;25.15;13.65;;;;;;;13.53;96.27;99453.22;8452688;28;20040;-77
2022/10/08 02:22:10;;;;;;;19.17;12.60;;;;;;;13.55;95.86;99453.69;8436668;28;20186;-77
2022/10/08 02:26:16;;;;;;;22.92;12.52;;;;;;;13.53;96.06;99445.09;8440884;28;20054;-77
2022/10/08 02:30:17;;;;;;;25.08;13.30;;;;;;;13.50;96.10;99437.56;8434107;28;20052;-77
2022/10/08 02:34:36;;;;;;;27.63;15.82;;;;;;;13.44;96.49;99438.84;8430547;28;20145;-77
2022/10/08 02:38:50;;;;;;;21.00;13.77;;;;;;;13.42;96.29;99446.53;8473958;28;20054;-78
2022/10/08 02:42:55;;;;;;;21.30;12.60;;;;;;;13.40;96.43;99451.47;8459543;28;20437;-77
2022/10/08 02:46:58;;;;;;;21.88;11.95;;;;;;;13.39;96.52;99441.72;8466518;28;20572;-76
2022/10/08 02:51:05;;;;;;;19.15;12.55;;;;;;;13.38;96.60;99451.75;8466223;28;20059;-77
2022/10/08 02:55:37;;;;;;;20.10;12.68;;;;;;;13.40;96.52;99448.75;8471894;27;20148;-77
2022/10/08 02:59:38;;;;;;;24.75;12.38;;;;;;;13.40;96.40;99443.31;8361133;28;20064;-77
2022/10/08 03:04:12;;;;;;;19.13;12.50;;;;;;;13.39;96.68;99453.38;8382449;28;20532;-77
2022/10/08 03:08:13;;;;;;;19.50;14.10;;;;;;;13.37;96.65;99454.81;8365406;28;20041;-78
2022/10/08 03:12:14;;;;;;;22.17;13.13;;;;;;;13.36;96.63;99445.88;8360870;28;20069;-77
2022/10/08 03:16:20;;;;;;;21.50;12.43;;;;;;;13.36;96.78;99453.22;8362465;28;20044;-77
2022/10/08 03:20:22;;;;;;;20.63;12.95;;;;;;;13.40;96.71;99454.16;8350274;28;20072;-77
2022/10/08 03:24:23;;;;;;;21.70;13.52;;;;;;;13.46;96.50;99458.31;8369299;28;20052;-77
2022/10/08 03:28:23;;;;;;;21.55;13.80;;;;;;;13.51;96.21;99460.88;8341628;28;20048;-77
2022/10/08 03:32:25;;;;;;;22.45;14.07;;;;;;;13.50;96.50;99451.94;8383653;28;20052;-77
2022/10/08 03:36:26;;;;;;;22.00;13.90;;;;;;;13.50;96.41;99448.41;8425965;28;20393;-77
2022/10/08 03:40:27;;;;;;;21.33;13.23;;;;;;;13.47;96.46;99449.06;8441709;28;20484;-77
2022/10/08 03:44:28;;;;;;;24.92;14.88;;;;;;;13.41;96.59;99442.19;8451725;28;20048;-77
2022/10/08 03:48:29;;;;;;;18.25;13.18;;;;;;;13.33;97.02;99432.13;8443360;28;20127;-77
2022/10/08 03:52:30;;;;;;;22.00;13.98;;;;;;;13.27;97.08;99438.84;8432267;28;20468;-78
2022/10/08 03:56:31;;;;;;;21.23;14.57;;;;;;;13.20;97.28;99433.09;8440685;28;20570;-78
2022/10/08 04:00:32;;;;;;;19.60;14.60;;;;;;;13.14;97.56;99428.94;8436140;28;20122;-78
2022/10/08 04:04:33;;;;;;;20.98;14.38;;;;;;;13.05;97.78;99421.56;8459550;28;20100;-78
2022/10/08 04:08:35;;;;;;;23.17;15.07;;;;;;;12.99;97.85;99422.84;8445135;28;20067;-77
2022/10/08 04:12:36;;;;;;;24.35;15.52;;;;;;;12.90;98.33;99430.13;8462660;27;20043;-78
2022/10/08 04:16:36;;;;;;;24.23;14.88;;;;;;;12.82;98.38;99422.78;8453808;27;20058;-77
2022/10/08 04:20:38;;;;;;;23.35;14.20;;;;;;;12.74;98.68;99426.31;8501384;27;20668;-77
2022/10/08 04:24:39;;;;;;;21.98;15.25;;;;;;;12.64;98.75;99426.56;8498233;27;20448;-77
2022/10/08 04:28:43;;;;;;;21.05;16.05;;;;;;;12.57;99.13;99431.66;8506274;27;20074;-77
2022/10/08 04:32:43;;;;;;;27.17;15.70;;;;;;;12.54;99.14;99426.84;8501972;27;20096;-77
2022/10/08 04:36:44;;;;;;;24.98;16.05;;;;;;;12.52;99.22;99424.47;8500119;27;20091;-77
2022/10/08 04:40:45;;;;;;;24.70;16.92;;;;;;;12.54;99.22;99426.84;8510344;27;20766;-77
2022/10/08 04:44:46;;;;;;;25.70;17.60;;;;;;;12.59;98.99;99434.84;8498350;27;20107;-77
2022/10/08 04:48:50;;;;;;;32.50;17.85;;;;;;;12.67;98.74;99431.38;8506048;27;20126;-77
2022/10/08 04:52:51;;;;;;;29.33;17.25;;;;;;;12.74;98.88;99431.72;8498047;27;20047;-76
2022/10/08 04:56:52;;;;;;;29.73;17.98;;;;;;;12.81;98.54;99432.03;8461187;27;20043;-77
2022/10/08 05:00:53;;;;;;;31.58;19.38;;;;;;;12.86;98.55;99439.22;8516643;27;20126;-76
2022/10/08 05:04:53;;;;;;;26.08;17.77;;;;;;;12.93;98.48;99445.78;8509208;27;20463;-77
2022/10/08 05:08:56;;;;;;;24.70;17.65;;;;;;;12.98;98.45;99437.50;8502742;27;20101;-77
2022/10/08 05:12:57;;;;;;;31.70;17.92;;;;;;;13.03;98.32;99434.63;8503240;27;20055;-77
2022/10/08 05:16:58;;;;;;;23.20;17.05;;;;;;;13.06;98.53;99438.63;8483864;27;20047;-76
2022/10/08 05:21:07;;;;;;;24.33;17.02;;;;;;;13.08;98.54;99436.41;8491760;27;20059;-76
2022/10/08 05:25:09;;;;;;;26.23;17.95;;;;;;;13.09;98.41;99427.94;8502775;27;20091;-76
2022/10/08 05:29:10;;;;;;;26.88;17.60;;;;;;;13.07;98.58;99440.22;8495806;27;20663;-76
2022/10/08 05:33:11;;;;;;;25.27;17.17;;;;;;;13.06;98.70;99431.28;8500386;27;20038;-76
2022/10/08 05:37:12;;;;;;;28.08;16.80;;;;;;;13.06;98.89;99428.56;8504322;27;20127;-77
2022/10/08 05:41:15;;;;;;;28.30;17.70;;;;;;;13.07;98.90;99441.03;8496401;27;20047;-76
2022/10/08 05:45:16;;;;;;;30.55;18.65;;;;;;;13.08;99.05;99442.63;8498713;27;20071;-78
2022/10/08 05:49:20;;;;;;;26.80;17.17;;;;;;;13.13;98.82;99447.13;8511919;27;20048;-77
2022/10/08 05:53:20;;;;;;;33.30;18.00;;;;;;;13.16;98.81;99443.00;8479135;27;20043;-76
2022/10/08 05:57:22;;;;;;;25.58;17.85;;;;;;;13.20;98.85;99454.78;8493439;27;20050;-76
2022/10/08 06:01:27;;;;;;;24.27;17.52;;;;;;;13.26;98.78;99448.91;8503993;27;20453;-76
2022/10/08 06:05:28;;;;;;;26.63;16.92;;;;;;;13.36;98.62;99453.22;8509329;27;20050;-75
2022/10/08 06:09:29;;;;;;;23.77;17.77;;;;;;;13.47;98.42;99449.06;8507259;27;20042;-76
2022/10/08 06:13:30;;;;;;;24.83;17.00;;;;;;;13.59;98.38;99456.59;8504626;27;20051;-77
2022/10/08 06:17:31;;;;;;;27.77;17.88;;;;;;;13.76;97.89;99446.50;8506857;27;20114;-76
2022/10/08 06:21:33;;;;;;;28.88;17.83;;;;;;;13.90;97.29;99452.56;8501601;27;20156;-76
2022/10/08 06:25:36;;;;;;;22.88;16.25;;;;;;;14.05;96.99;99443.09;8507231;27;20133;-77
2022/10/08 06:29:37;;;;;;;31.58;18.02;;;;;;;14.25;96.52;99447.03;8506173;27;20039;-78
2022/10/08 06:33:38;;;;;;;28.33;17.63;;;;;;;14.40;95.58;99443.81;8500790;27;20058;-77
2022/10/08 06:37:39;;;;;;;26.95;18.05;;;;;;;14.48;95.29;99451.16;8512965;27;20054;-79
2022/10/08 06:41:40;;;;;;;26.30;17.23;;;;;;;14.54;94.49;99444.38;8479567;27;20055;-78
2022/10/08 06:45:42;;;;;;;28.50;17.67;;;;;;;14.60;94.36;99437.66;8510533;27;20130;-76
2022/10/08 06:49:43;;;;;;;23.25;16.85;;;;;;;14.67;94.00;99448.81;8524661;27;20057;-76
2022/10/08 06:53:50;;;;;;;26.17;17.55;;;;;;;14.71;93.77;99441.59;8508087;27;20049;-80
2022/10/08 06:57:51;;;;;;;26.92;18.17;;;;;;;14.79;93.53;99439.97;8499761;27;20633;-76
2022/10/08 07:01:52;;;;;;;29.65;17.48;;;;;;;14.83;93.42;99449.06;8508043;27;20051;-76
2022/10/08 07:05:53;;;;;;;29.80;16.38;;;;;;;14.88;93.05;99440.72;8503673;27;20138;-77
2022/10/08 07:09:54;;;;;;;31.90;17.00;;;;;;;14.95;92.93;99445.63;8517096;27;20057;-78
2022/10/08 07:13:56;;;;;;;29.65;17.02;;;;;;;14.98;92.74;99444.97;8531124;27;20053;-77
2022/10/08 07:17:58;;;;;;;27.63;16.92;;;;;;;14.98;92.82;99450.41;8518974;27;20049;-78
2022/10/08 07:22:00;;;;;;;28.83;18.20;;;;;;;15.00;92.75;99440.00;8524376;27;20100;-78
2022/10/08 07:26:08;;;;;;;25.50;17.70;;;;;;;15.06;92.74;99449.56;8530571;27;20100;-79
2022/10/08 07:30:10;;;;;;;27.65;17.50;;;;;;;15.11;92.29;99452.09;8510667;27;20054;-78
2022/10/08 07:34:11;;;;;;;25.50;17.75;;;;;;;15.17;91.98;99450.78;8507891;27;20055;-80
2022/10/08 07:38:17;;;;;;;30.83;17.15;;;;;;;15.30;91.75;99452.44;8519111;27;20042;-79
2022/10/08 07:42:19;;;;;;;30.83;17.48;;;;;;;15.44;90.93;99450.25;8531388;27;20133;-78
2022/10/08 07:46:20;;;;;;;28.67;18.00;;;;;;;15.57;90.33;99449.22;8520939;27;20463;-78
2022/10/08 07:50:23;;;;;;;32.20;16.80;;;;;;;15.76;90.12;99439.75;8525874;27;20043;-78
2022/10/08 07:54:23;;;;;;;29.33;18.08;;;;;;;15.84;89.18;99441.63;8463372;27;20043;-80
2022/10/08 07:58:25;;;;;;;27.75;17.80;;;;;;;15.87;88.88;99435.47;8462757;27;20168;-80
2022/10/08 08:02:26;;;;;;;33.83;17.35;;;;;;;15.96;88.77;99441.66;8504808;27;20043;-80
2022/10/08 08:06:28;;;;;;;31.23;16.45;;;;;;;16.07;88.88;99445.56;8489301;27;20047;-78
2022/10/08 08:10:29;;;;;;;23.38;16.70;;;;;;;16.24;88.47;99439.09;8512603;27;20053;-78
2022/10/08 08:14:30;;;;;;;31.27;17.08;;;;;;;16.39;87.90;99447.41;8456876;27;20518;-80
2022/10/08 08:18:34;;;;;;;32.65;17.35;;;;;;;16.50;88.13;99457.91;8490844;27;20047;-81
2022/10/08 08:22:35;;;;;;;26.40;15.32;;;;;;;16.52;87.73;99455.63;8472646;27;20104;-80
2022/10/08 08:26:37;;;;;;;26.95;16.00;;;;;;;16.46;87.30;99458.56;8464316;28;20538;-82
2022/10/08 08:30:38;;;;;;;24.23;15.00;;;;;;;16.41;87.01;99439.72;8468088;27;20051;-81
2022/10/08 08:34:39;;;;;;;26.05;15.90;;;;;;;16.45;86.79;99446.06;8490222;27;20090;-81
2022/10/08 08:38:40;;;;;;;24.52;14.98;;;;;;;16.50;86.82;99438.81;8469417;27;20050;-81
2022/10/08 08:42:50;;;;;;;22.17;13.60;;;;;;;16.44;86.02;99444.47;8464409;27;20580;-81
2022/10/08 08:46:57;;;;;;;22.58;14.10;;;;;;;16.38;85.32;99456.75;8462558;28;20036;-81
2022/10/08 08:50:58;;;;;;;20.45;14.20;;;;;;;16.32;84.94;99447.19;8481254;27;20051;-80
2022/10/08 08:55:00;;;;;;;22.80;13.90;;;;;;;16.30;84.66;99449.44;8445816;27;20464;-82
2022/10/08 08:59:04;;;;;;;25.88;13.82;;;;;;;16.31;85.11;99461.94;8461781;28;20424;-81
2022/10/08 09:03:25;;;;;;;20.50;13.63;;;;;;;16.44;85.66;99460.81;8463206;28;20043;-81
2022/10/08 09:07:35;;;;;;;28.88;14.98;;;;;;;16.59;85.73;99461.34;8463246;27;20051;-81
2022/10/08 09:11:38;;;;;;;26.63;14.05;;;;;;;16.67;85.89;99457.69;8466007;27;20495;-81
2022/10/08 09:15:39;;;;;;;32.35;14.73;;;;;;;16.86;85.59;99460.69;8479361;27;20062;-81
2022/10/08 09:19:40;;;;;;;22.85;14.23;;;;;;;17.02;84.71;99453.41;8504885;27;20045;-80
2022/10/08 09:23:42;;;;;;;22.55;13.85;;;;;;;17.11;83.78;99456.00;8503701;27;20047;-81
2022/10/08 09:27:57;;;;;;;25.17;13.80;;;;;;;17.06;83.04;99459.75;8495895;27;20043;-82
2022/10/08 09:31:58;;;;;;;24.50;13.43;;;;;;;17.03;82.47;99465.88;8495852;27;20126;-81
2022/10/08 09:35:59;;;;;;;23.58;13.88;;;;;;;17.01;82.62;99468.16;8507456;27;20059;-81
2022/10/08 09:40:12;;;;;;;22.75;12.63;;;;;;;17.00;83.01;99469.31;8487733;27;20485;-81
2022/10/08 09:44:21;;;;;;;21.40;13.98;;;;;;;16.94;83.17;99473.41;8500208;27;20062;-81
2022/10/08 09:48:27;;;;;;;25.20;13.85;;;;;;;16.88;83.38;99480.22;8496883;27;20043;-82
2022/10/08 09:52:32;;;;;;;29.40;14.82;;;;;;;16.90;82.95;99477.94;8508378;27;20107;-80
2022/10/08 09:56:34;;;;;;;33.53;15.40;;;;;;;16.89;83.09;99476.34;8476900;27;20548;-83
2022/10/08 10:00:36;;;;;;;26.42;14.73;;;;;;;16.88;83.09;99470.09;8485406;27;20047;-81
2022/10/08 10:04:39;;;;;;;23.58;14.88;;;;;;;16.90;83.46;99477.94;8506621;27;20488;-82
2022/10/08 10:08:43;;;;;;;28.75;14.77;;;;;;;16.95;82.14;99475.00;8509565;27;20042;-82
2022/10/08 10:12:51;;;;;;;31.38;15.80;;;;;;;16.98;82.22;99479.75;8498322;27;20487;-81
2022/10/08 10:17:26;;;;;;;28.95;15.20;;;;;;;17.08;81.60;99479.28;8481331;27;20115;-82
2022/10/08 10:21:35;;;;;;;28.48;16.05;;;;;;;17.21;81.15;99478.16;8353328;28;20044;-82
2022/10/08 10:25:47;;;;;;;30.33;15.75;;;;;;;17.47;79.77;99463.31;8370225;28;20063;-82
2022/10/08 10:29:59;;;;;;;27.15;15.10;;;;;;;17.70;79.79;99461.69;8383987;28;20102;-80
2022/10/08 10:34:16;;;;;;;22.50;15.18;;;;;;;17.84;79.80;99456.59;8385677;28;20106;-81
2022/10/08 10:38:32;;;;;;;24.35;12.65;;;;;;;17.74;78.80;99457.09;8372527;28;20568;-81
2022/10/08 10:42:38;;;;;;;22.67;11.73;;;;;;;17.53;78.90;99443.59;8383065;28;20058;-82
2022/10/08 10:46:58;;;;;;;21.45;11.18;;;;;;;17.37;78.78;99447.41;8358034;28;20416;-83
2022/10/08 10:51:21;;;;;;;29.90;11.43;;;;;;;17.26;79.10;99447.88;8374027;28;20048;-82
2022/10/08 10:55:29;;;;;;;18.17;11.25;;;;;;;17.11;79.39;99451.31;8286932;28;20118;-81
2022/10/08 11:00:13;;;;;;;20.92;11.48;;;;;;;17.06;80.53;99448.84;8369139;28;20413;-82
2022/10/08 11:04:16;;;;;;;17.73;10.95;;;;;;;17.07;80.71;99444.97;8338618;28;20056;-82
2022/10/08 11:08:36;;;;;;;23.33;12.55;;;;;;;17.02;80.98;99442.47;8348054;28;20049;-82
2022/10/08 11:13:06;;;;;;;27.85;11.68;;;;;;;17.03;81.06;99438.59;8346350;28;20076;-82
2022/10/08 11:17:20;;;;;;;25.52;11.93;;;;;;;16.98;81.20;99433.38;8344770;28;20044;-81
2022/10/08 11:21:36;;;;;;;22.63;11.75;;;;;;;16.91;80.95;99438.63;8345298;28;20049;-81
2022/10/08 11:25:47;;;;;;;24.15;11.85;;;;;;;16.81;81.23;99441.81;8352398;28;20045;-83
2022/10/08 11:30:16;;;;;;;25.52;12.25;;;;;;;16.74;81.69;99436.13;8302498;28;20056;-82
2022/10/08 11:34:35;;;;;;;26.35;12.38;;;;;;;16.69;82.49;99436.34;8419550;28;20043;-83
2022/10/08 11:39:09;;;;;;;27.23;12.45;;;;;;;16.61;83.41;99431.78;8454437;28;20127;-81
2022/10/08 11:43:37;;;;;;;23.27;12.82;;;;;;;16.48;84.74;99439.94;8446225;28;20125;-80
2022/10/08 11:47:40;;;;;;;25.15;13.02;;;;;;;16.40;85.41;99427.22;8448604;28;20730;-81
2022/10/08 11:51:43;;;;;;;27.48;12.50;;;;;;;16.30;86.04;99433.09;8465747;28;20510;-81
2022/10/08 11:55:51;;;;;;;23.65;12.93;;;;;;;16.27;86.48;99433.78;8465379;28;20047;-81
2022/10/08 11:59:52;;;;;;;29.70;13.00;;;;;;;16.27;86.95;99422.09;8447152;28;20047;-81
2022/10/08 12:04:26;;;;;;;27.25;13.70;;;;;;;16.28;87.33;99424.47;8465336;28;20509;-81
2022/10/08 12:08:57;;;;;;;34.75;13.77;;;;;;;16.32;87.58;99430.03;8515271;27;20092;-81
2022/10/08 12:13:01;;;;;;;22.83;13.90;;;;;;;16.37;87.88;99422.44;8383968;28;20053;-81
2022/10/08 12:17:02;;;;;;;28.45;14.82;;;;;;;16.41;88.05;99423.34;8310981;28;20445;-81
2022/10/08 12:21:15;;;;;;;32.35;16.75;;;;;;;16.52;87.96;99409.28;8302875;28;20095;-81
2022/10/08 12:25:32;;;;;;;30.95;17.95;;;;;;;16.58;87.75;99411.44;8318455;28;20053;-81
2022/10/08 12:29:53;;;;;;;33.67;16.33;;;;;;;16.64;87.99;99414.75;8314803;28;20050;-81
2022/10/08 12:34:09;;;;;;;32.42;18.27;;;;;;;16.64;87.99;99421.03;8316395;28;20061;-82
2022/10/08 12:38:35;;;;;;;29.52;17.63;;;;;;;16.65;88.08;99421.81;8307939;28;20057;-82
2022/10/08 12:42:37;;;;;;;26.52;16.25;;;;;;;16.58;88.17;99416.88;8288255;28;20128;-81
2022/10/08 12:46:49;;;;;;;27.05;14.73;;;;;;;16.52;87.96;99422.91;8277055;28;20057;-81
2022/10/08 12:51:16;;;;;;;34.42;15.57;;;;;;;16.50;88.05;99419.75;8275537;28;20117;-82
2022/10/08 12:55:19;;;;;;;24.48;14.38;;;;;;;16.42;88.01;99419.50;8392968;28;20056;-82
2022/10/08 12:59:22;;;;;;;24.10;13.57;;;;;;;16.35;87.87;99430.16;8366310;28;20126;-80
2022/10/08 13:03:24;;;;;;;22.50;13.65;;;;;;;16.32;88.06;99433.56;8398568;28;20053;-81
2022/10/08 13:07:27;;;;;;;36.20;15.10;;;;;;;16.32;88.28;99430.84;8394481;28;20127;-82
2022/10/08 13:11:28;;;;;;;29.45;14.85;;;;;;;16.32;88.36;99424.59;8389757;28;20060;-82
2022/10/08 13:15:32;;;;;;;27.38;14.65;;;;;;;16.26;88.28;99415.84;8354659;28;20131;-82
2022/10/08 13:19:36;;;;;;;30.63;14.68;;;;;;;16.28;88.61;99440.84;8344887;28;20103;-82
2022/10/08 13:23:40;;;;;;;31.38;15.68;;;;;;;16.29;88.52;99442.41;8364248;28;20053;-81
2022/10/08 13:27:41;;;;;;;35.20;15.77;;;;;;;16.33;88.75;99432.44;8359226;28;20490;-82
2022/10/08 13:31:42;;;;;;;23.67;14.02;;;;;;;16.40;88.23;99427.22;8420979;27;20135;-81
2022/10/08 13:35:58;;;;;;;29.83;13.85;;;;;;;16.38;88.27;99424.03;8491132;27;20050;-82
2022/10/08 13:40:20;;;;;;;28.65;14.60;;;;;;;16.37;88.30;99436.06;8487028;27;20055;-81
2022/10/08 13:44:24;;;;;;;31.45;13.82;;;;;;;16.37;88.05;99436.06;8498276;27;20056;-82
2022/10/08 13:48:25;;;;;;;23.63;13.15;;;;;;;16.34;87.95;99428.56;8508104;27;20130;-82
2022/10/08 13:52:31;;;;;;;21.35;11.68;;;;;;;16.29;87.47;99428.78;8529668;27;20050;-81
2022/10/08 13:56:32;;;;;;;21.88;10.07;;;;;;;16.20;85.46;99433.53;8513146;27;20091;-82
2022/10/08 14:00:36;;;;;;;18.30;9.82;;;;;;;16.14;84.23;99445.78;8488184;27;20194;-84
2022/10/08 14:04:37;;;;;;;21.33;9.52;;;;;;;16.09;83.74;99437.81;8507700;27;20051;-81
2022/10/08 14:08:38;;;;;;;21.73;9.65;;;;;;;16.07;83.94;99429.22;8517114;27;20062;-80
2022/10/08 14:12:40;;;;;;;17.42;8.82;;;;;;;16.01;83.08;99425.91;8521922;27;20043;-80
2022/10/08 14:16:41;;;;;;;18.23;9.50;;;;;;;15.97;83.31;99429.59;8514535;27;20043;-82
2022/10/08 14:20:42;;;;;;;14.63;8.43;;;;;;;15.93;83.14;99440.38;8480237;27;20495;-80
2022/10/08 14:24:43;;;;;;;16.23;8.50;;;;;;;15.89;82.44;99438.69;8477854;27;20050;-82
2022/10/08 14:28:44;;;;;;;22.25;9.15;;;;;;;15.87;82.86;99438.22;8510535;27;20047;-80
2022/10/08 14:32:45;;;;;;;22.42;9.00;;;;;;;15.85;83.03;99437.75;8486553;27;20043;-81
2022/10/08 14:36:48;;;;;;;23.63;8.38;;;;;;;15.90;82.85;99434.84;8530256;27;20038;-81
2022/10/08 14:40:49;;;;;;;21.52;9.43;;;;;;;15.86;82.98;99423.03;8449108;28;20122;-81
2022/10/08 14:44:52;;;;;;;22.30;9.20;;;;;;;15.86;82.84;99433.91;8435609;28;20071;-80
2022/10/08 14:48:52;;;;;;;20.65;10.57;;;;;;;15.88;82.81;99431.63;8432442;28;20093;-80
2022/10/08 14:52:54;;;;;;;22.92;10.98;;;;;;;15.91;82.80;99425.53;8443492;28;20048;-80
2022/10/08 14:56:55;;;;;;;25.85;12.60;;;;;;;15.87;82.81;99424.59;8435012;28;20052;-82
2022/10/08 15:00:57;;;;;;;23.52;10.88;;;;;;;15.83;82.94;99434.56;8437822;28;20064;-81
2022/10/08 15:04:58;;;;;;;27.13;10.77;;;;;;;15.77;83.09;99430.47;8446683;28;20039;-80
2022/10/08 15:09:00;;;;;;;21.15;11.05;;;;;;;15.70;83.49;99435.66;8441631;28;20122;-81
2022/10/08 15:13:02;;;;;;;25.95;11.68;;;;;;;15.61;83.44;99422.91;8442630;28;20060;-81
2022/10/08 15:17:06;;;;;;;20.77;9.98;;;;;;;15.54;83.78;99433.56;8436190;27;20054;-81
2022/10/08 15:21:07;;;;;;;22.33;10.77;;;;;;;15.46;83.71;99437.09;8496190;27;20077;-81
2022/10/08 15:25:08;;;;;;;20.77;10.70;;;;;;;15.41;84.08;99440.03;8524372;27;20042;-79
2022/10/08 15:29:09;;;;;;;21.40;9.95;;;;;;;15.32;83.96;99442.03;8525501;27;20065;-80
2022/10/08 15:33:10;;;;;;;22.88;10.20;;;;;;;15.26;83.85;99448.78;8525083;27;20043;-82
2022/10/08 15:37:11;;;;;;;24.02;10.43;;;;;;;15.23;83.81;99454.88;8491305;27;20062;-81
2022/10/08 15:41:16;;;;;;;20.35;10.40;;;;;;;15.18;83.67;99446.91;8519770;27;20031;-80
2022/10/08 15:45:17;;;;;;;25.95;10.60;;;;;;;15.11;84.28;99454.81;8526364;27;20034;-84
2022/10/08 15:49:18;;;;;;;28.00;12.05;;;;;;;15.03;84.27;99461.09;8527414;27;20494;-81
2022/10/08 15:53:19;;;;;;;26.27;12.82;;;;;;;14.98;84.57;99474.88;8523151;27;20043;-81
2022/10/08 15:57:20;;;;;;;24.63;13.00;;;;;;;14.89;85.00;99485.03;8520551;27;20039;-82
2022/10/08 16:01:22;;;;;;;24.05;11.85;;;;;;;14.83;85.18;99480.88;8518762;27;20042;-81
2022/10/08 16:05:24;;;;;;;28.98;11.52;;;;;;;14.76;85.02;99490.34;8526041;27;20235;-80
2022/10/08 16:09:25;;;;;;;23.55;11.40;;;;;;;14.73;85.21;99491.00;8513497;27;20051;-80
2022/10/08 16:13:26;;;;;;;25.15;11.40;;;;;;;14.68;85.30;99502.06;8515312;27;20064;-81
2022/10/08 16:17:27;;;;;;;25.17;12.73;;;;;;;14.62;85.47;99503.38;8524655;27;20110;-80
2022/10/08 16:21:31;;;;;;;22.23;10.10;;;;;;;14.59;84.59;99517.59;8516281;27;20051;-82
2022/10/08 16:25:34;;;;;;;27.90;8.82;;;;;;;14.51;84.56;99525.78;8507537;27;20138;-81
2022/10/08 16:29:35;;;;;;;10.40;6.07;;;;;;;14.42;84.22;99530.44;8515039;27;20046;-80
2022/10/08 16:33:36;;;;;;;13.32;6.10;;;;;;;14.32;84.03;99528.84;8528361;27;20041;-81
2022/10/08 16:37:38;;;;;;;19.95;5.55;;;;;;;14.26;83.54;99541.00;8529309;27;20057;-80
2022/10/08 16:41:39;;;;;;;11.43;4.43;;;;;;;14.17;83.59;99553.81;8505794;27;20035;-80
2022/10/08 16:45:40;;;;;;;14.05;5.50;;;;;;;14.09;83.48;99551.88;8516467;27;20502;-80
2022/10/08 16:49:42;;;;;;;14.15;5.53;;;;;;;13.98;83.97;99562.25;8519401;27;20066;-80
2022/10/08 16:53:58;;;;;;;14.20;5.07;;;;;;;13.90;84.19;99566.59;8524981;27;20426;-80
2022/10/08 16:57:59;;;;;;;16.55;5.63;;;;;;;13.82;84.50;99566.56;8505951;27;20054;-80
2022/10/08 17:02:01;;;;;;;17.63;5.60;;;;;;;13.70;85.12;99572.63;8513429;27;20152;-79
2022/10/08 17:06:02;;;;;;;14.20;5.72;;;;;;;13.62;85.32;99589.72;8511740;27;20058;-80
2022/10/08 17:10:04;;;;;;;14.98;5.72;;;;;;;13.50;85.40;99584.09;8520189;27;20046;-81
2022/10/08 17:14:06;;;;;;;18.38;5.75;;;;;;;13.36;85.94;99584.22;8505381;27;20071;-81
2022/10/08 17:18:07;;;;;;;12.43;5.75;;;;;;;13.27;86.52;99586.09;8467197;27;20059;-80
2022/10/08 17:22:09;;;;;;;16.15;5.80;;;;;;;13.21;87.09;99602.84;8483262;27;20472;-80
2022/10/08 17:26:15;;;;;;;21.60;6.40;;;;;;;13.14;87.38;99607.91;8471228;27;20097;-81
2022/10/08 17:30:16;;;;;;;25.27;6.68;;;;;;;13.05;87.58;99616.78;8485221;27;20043;-80
2022/10/08 17:34:17;;;;;;;27.88;5.40;;;;;;;13.00;87.91;99619.63;8480663;27;20047;-80
2022/10/08 17:38:18;;;;;;;21.15;6.25;;;;;;;12.95;87.85;99610.84;8462273;27;20495;-80
2022/10/08 17:42:19;;;;;;;20.48;6.25;;;;;;;12.88;88.42;99616.69;8471714;27;20069;-80
2022/10/08 17:46:25;;;;;;;25.00;6.90;;;;;;;12.80;88.69;99625.56;8478127;27;20055;-81
2022/10/08 17:50:26;;;;;;;19.52;6.32;;;;;;;12.73;88.66;99630.66;8475619;27;20129;-80
2022/10/08 17:54:27;;;;;;;19.30;5.63;;;;;;;12.73;88.04;99636.06;8475331;27;20142;-80
2022/10/08 17:58:28;;;;;;;17.15;5.65;;;;;;;12.78;86.98;99638.66;8470327;27;20064;-80
2022/10/08 18:02:30;;;;;;;23.08;6.07;;;;;;;12.74;87.16;99643.09;8466774;27;20042;-81
2022/10/08 18:06:36;;;;;;;19.10;5.95;;;;;;;12.73;87.33;99652.34;8469319;27;20071;-81
2022/10/08 18:10:37;;;;;;;17.35;5.82;;;;;;;12.67;87.11;99658.97;8443216;27;20048;-81
2022/10/08 18:14:39;;;;;;;18.60;5.90;;;;;;;12.61;86.79;99671.06;8484703;27;20138;-81
2022/10/08 18:18:41;;;;;;;19.13;5.53;;;;;;;12.61;86.18;99676.47;8504457;27;20188;-85
2022/10/08 18:22:42;;;;;;;17.45;5.28;;;;;;;12.66;85.17;99679.06;8506809;27;20047;-81
2022/10/08 18:26:44;;;;;;;11.95;4.70;;;;;;;12.70;83.71;99690.88;8467810;27;20170;-84
2022/10/08 18:30:46;;;;;;;15.40;4.45;;;;;;;12.73;83.48;99690.28;8517532;27;20524;-84
2022/10/08 18:34:47;;;;;;;10.75;3.55;;;;;;;12.70;83.56;99686.25;8499553;27;20408;-84
2022/10/08 18:38:56;;;;;;;15.52;3.97;;;;;;;12.66;83.75;99689.91;8504311;27;20088;-83
2022/10/08 18:42:57;;;;;;;;;;;;;;;12.61;84.16;99692.72;8500167;27;20050;-82
2022/10/08 18:46:58;;;;;;;20.23;3.33;;;;;;;12.54;84.53;99692.34;8456562;27;20443;-82
2022/10/08 18:51:21;;;;;;;14.70;3.83;;;;;;;12.49;84.96;99700.59;8478781;27;20051;-82